createdAt,value
2019-05-20T00:00:00.951Z,13.94
2019-05-20T00:02:31.841Z,13.95
2019-05-20T00:05:00.951Z,14.00
2019-05-20T00:07:29.733Z,14.02
2019-05-20T00:09:58.531Z,14.03
2019-05-20T00:12:27.521Z,14.03
2019-05-20T00:14:56.382Z,14.02
2019-05-20T00:17:25.287Z,14.01
2019-05-20T00:19:55.904Z,14.01
2019-05-20T00:22:24.812Z,14.02
2019-05-20T00:24:53.902Z,14.02
2019-05-20T00:27:22.659Z,14.00
2019-05-20T00:29:51.531Z,13.98
2019-05-20T00:32:20.343Z,14.01
2019-05-20T00:34:49.498Z,13.98
2019-05-20T00:37:18.220Z,13.91
2019-05-20T00:39:47.020Z,13.91
2019-05-20T00:42:15.812Z,13.83
2019-05-20T00:44:44.552Z,13.83
2019-05-20T00:47:13.338Z,13.78
2019-05-20T00:49:42.160Z,13.71
2019-05-20T00:52:11.076Z,13.63
2019-05-20T00:54:40.914Z,13.61
2019-05-20T00:57:09.755Z,13.63
2019-05-20T00:59:38.638Z,13.58
2019-05-20T01:02:07.844Z,13.50
2019-05-20T01:04:36.700Z,13.48
2019-05-20T01:07:05.630Z,13.38
2019-05-20T01:09:34.885Z,13.32
2019-05-20T01:12:03.831Z,13.32
2019-05-20T01:14:32.853Z,13.24
2019-05-20T01:17:02.081Z,13.21
2019-05-20T01:19:31.135Z,13.15
2019-05-20T01:22:00.324Z,13.11
2019-05-20T01:24:29.188Z,13.09
2019-05-20T01:26:58.097Z,13.09
2019-05-20T01:29:26.959Z,13.09
2019-05-20T01:31:55.783Z,12.98
2019-05-20T01:34:24.555Z,13.00
2019-05-20T01:36:53.441Z,12.97
2019-05-20T01:39:22.276Z,12.94
2019-05-20T01:41:51.093Z,12.90
2019-05-20T01:44:22.912Z,12.85
2019-05-20T01:46:52.005Z,12.83
2019-05-20T01:49:20.904Z,12.76
2019-05-20T01:51:50.022Z,12.74
2019-05-20T01:54:18.867Z,12.75
2019-05-20T01:56:47.677Z,12.77
2019-05-20T01:59:16.472Z,12.78
2019-05-20T02:01:45.323Z,12.80
2019-05-20T02:04:14.167Z,12.80
2019-05-20T02:06:43.043Z,12.83
2019-05-20T02:09:11.918Z,12.80
2019-05-20T02:11:40.767Z,12.82
2019-05-20T02:14:13.539Z,12.77
2019-05-20T02:16:42.650Z,12.73
2019-05-20T02:19:11.480Z,12.66
2019-05-20T02:21:40.533Z,12.65
2019-05-20T02:24:09.347Z,12.67
2019-05-20T02:26:38.361Z,12.66
2019-05-20T02:29:07.137Z,12.66
2019-05-20T02:31:35.934Z,12.63
2019-05-20T02:34:04.824Z,12.62
2019-05-20T02:36:33.669Z,12.63
2019-05-20T02:39:02.384Z,12.67
2019-05-20T02:41:31.139Z,12.65
2019-05-20T02:43:59.863Z,12.67
2019-05-20T02:46:28.953Z,12.71
2019-05-20T02:48:57.786Z,12.74
2019-05-20T02:51:35.892Z,12.78
2019-05-20T02:54:04.651Z,12.82
2019-05-20T02:56:33.505Z,12.84
2019-05-20T02:59:02.300Z,12.83
2019-05-20T03:01:31.088Z,12.72
2019-05-20T03:04:10.587Z,12.71
2019-05-20T03:06:31.403Z,12.69
2019-05-20T03:09:00.219Z,12.62
2019-05-20T03:11:29.193Z,12.63
2019-05-20T03:13:58.051Z,12.56
2019-05-20T03:16:26.848Z,12.51
2019-05-20T03:18:55.693Z,12.43
2019-05-20T03:21:24.478Z,12.43
2019-05-20T03:23:53.624Z,12.41
2019-05-20T03:26:22.339Z,12.43
2019-05-20T03:28:51.499Z,12.36
2019-05-20T03:31:21.412Z,12.30
2019-05-20T03:33:50.166Z,12.33
2019-05-20T03:36:20.237Z,12.34
2019-05-20T03:38:49.688Z,12.33
2019-05-20T03:41:18.564Z,12.28
2019-05-20T03:43:47.394Z,12.29
2019-05-20T03:46:16.212Z,12.27
2019-05-20T03:48:46.092Z,12.25
2019-05-20T03:51:17.007Z,12.28
2019-05-20T03:53:45.928Z,12.31
2019-05-20T03:56:15.019Z,12.33
2019-05-20T03:58:43.823Z,12.32
2019-05-20T04:01:12.640Z,12.28
2019-05-20T04:03:42.919Z,12.29
2019-05-20T04:06:12.824Z,12.29
2019-05-20T04:08:41.614Z,12.29
2019-05-20T04:11:16.640Z,12.31
2019-05-20T04:13:45.417Z,12.36
2019-05-20T04:16:15.335Z,12.39
2019-05-20T04:18:44.145Z,12.41
2019-05-20T04:21:15.019Z,12.47
2019-05-20T04:23:43.842Z,12.53
2019-05-20T04:26:13.732Z,12.54
2019-05-20T04:28:42.624Z,12.61
2019-05-20T04:31:11.736Z,12.66
2019-05-20T04:33:40.613Z,12.68
2019-05-20T04:36:09.532Z,12.72
2019-05-20T04:38:38.633Z,12.76
2019-05-20T04:41:07.534Z,12.80
2019-05-20T04:43:36.388Z,12.85
2019-05-20T04:46:05.136Z,12.90
2019-05-20T04:48:33.861Z,12.92
2019-05-20T04:51:02.714Z,12.90
2019-05-20T04:53:31.637Z,12.94
2019-05-20T04:56:00.561Z,12.99
2019-05-20T04:58:29.301Z,13.03
2019-05-20T05:00:59.465Z,13.05
2019-05-20T05:03:28.670Z,13.12
2019-05-20T05:05:57.493Z,13.18
2019-05-20T05:08:26.367Z,13.25
2019-05-20T05:10:55.844Z,13.28
2019-05-20T05:13:25.109Z,13.33
2019-05-20T05:15:54.378Z,13.37
2019-05-20T05:18:23.615Z,13.41
2019-05-20T05:20:52.464Z,13.48
2019-05-20T05:23:23.370Z,13.53
2019-05-20T05:25:52.281Z,13.58
2019-05-20T05:28:21.247Z,13.62
2019-05-20T05:30:50.365Z,13.68
2019-05-20T05:33:19.248Z,13.73
2019-05-20T05:35:53.402Z,13.74
2019-05-20T05:38:18.996Z,13.76
2019-05-20T05:40:48.224Z,13.78
2019-05-20T05:43:17.384Z,13.85
2019-05-20T05:45:46.295Z,13.91
2019-05-20T05:48:15.183Z,13.96
2019-05-20T05:50:44.087Z,13.99
2019-05-20T05:53:13.149Z,14.03
2019-05-20T05:55:42.410Z,14.04
2019-05-20T05:58:11.765Z,14.07
2019-05-20T06:00:40.994Z,14.10
2019-05-20T06:03:22.169Z,14.10
2019-05-20T06:05:51.164Z,14.14
2019-05-20T06:08:19.975Z,14.17
2019-05-20T06:10:49.075Z,14.23
2019-05-20T06:13:18.045Z,14.25
2019-05-20T06:15:58.073Z,14.29
2019-05-20T06:18:26.906Z,14.32
2019-05-20T06:20:55.844Z,14.36
2019-05-20T06:23:24.730Z,14.40
2019-05-20T06:25:54.754Z,14.46
2019-05-20T06:28:23.642Z,14.53
2019-05-20T06:30:52.602Z,14.68
2019-05-20T06:33:21.743Z,14.90
2019-05-20T06:35:50.862Z,15.16
2019-05-20T06:38:43.601Z,15.43
2019-05-20T06:41:12.676Z,15.68
2019-05-20T06:43:41.607Z,15.93
2019-05-20T06:46:10.525Z,16.13
2019-05-20T06:48:39.434Z,16.28
2019-05-20T06:51:08.386Z,16.46
2019-05-20T06:53:37.539Z,16.69
2019-05-20T06:56:09.515Z,16.86
2019-05-20T06:58:38.342Z,17.01
2019-05-20T07:01:07.171Z,17.18
2019-05-20T07:03:36.037Z,17.30
2019-05-20T07:06:05.044Z,17.49
2019-05-20T07:08:33.772Z,17.79
2019-05-20T07:11:02.625Z,17.89
2019-05-20T07:13:42.078Z,17.88
2019-05-20T07:16:11.118Z,17.67
2019-05-20T07:18:40.274Z,17.59
2019-05-20T07:21:09.070Z,17.64
2019-05-20T07:23:37.967Z,17.70
2019-05-20T07:26:06.863Z,17.70
2019-05-20T07:28:35.686Z,17.72
2019-05-20T07:31:05.027Z,17.78
2019-05-20T07:33:34.189Z,17.77
2019-05-20T07:36:03.034Z,17.64
2019-05-20T07:38:31.880Z,17.90
2019-05-20T07:41:00.851Z,18.08
2019-05-20T07:43:29.946Z,18.14
2019-05-20T07:45:59.238Z,18.21
2019-05-20T07:48:28.681Z,18.21
2019-05-20T07:50:57.856Z,18.37
2019-05-20T07:53:26.853Z,18.81
2019-05-20T07:56:03.279Z,18.86
2019-05-20T07:58:34.003Z,19.14
2019-05-20T08:01:03.169Z,19.17
2019-05-20T08:03:32.141Z,19.30
2019-05-20T08:06:01.269Z,19.17
2019-05-20T08:08:30.238Z,19.19
2019-05-20T08:10:59.621Z,19.02
2019-05-20T08:13:28.557Z,18.80
2019-05-20T08:15:57.420Z,18.57
2019-05-20T08:18:26.276Z,18.42
2019-05-20T08:20:55.001Z,18.34
2019-05-20T08:23:25.189Z,18.29
2019-05-20T08:25:54.228Z,18.28
2019-05-20T08:28:23.174Z,18.24
2019-05-20T08:30:52.089Z,18.08
2019-05-20T08:33:21.202Z,18.09
2019-05-20T08:35:50.435Z,17.94
2019-05-20T08:38:19.437Z,17.93
2019-05-20T08:40:49.010Z,17.91
2019-05-20T08:43:17.901Z,17.77
2019-05-20T08:45:46.847Z,17.72
2019-05-20T08:48:15.642Z,17.67
2019-05-20T08:50:44.509Z,17.73
2019-05-20T08:53:13.361Z,17.69
2019-05-20T08:55:42.192Z,17.73
2019-05-20T08:58:11.263Z,17.70
2019-05-20T09:00:40.446Z,17.80
2019-05-20T09:03:09.541Z,17.76
2019-05-20T09:05:39.046Z,17.76
2019-05-20T09:08:08.414Z,17.75
2019-05-20T09:10:39.444Z,17.78
2019-05-20T09:13:08.171Z,17.83
2019-05-20T09:15:37.052Z,17.79
2019-05-20T09:18:12.957Z,17.86
2019-05-20T09:20:41.943Z,17.87
2019-05-20T09:23:11.030Z,17.99
2019-05-20T09:25:39.979Z,18.10
2019-05-20T09:28:09.283Z,18.13
2019-05-20T09:30:38.327Z,18.16
2019-05-20T09:33:07.357Z,18.16
2019-05-20T09:35:36.281Z,18.26
2019-05-20T09:38:18.429Z,18.37
2019-05-20T09:40:41.192Z,18.33
2019-05-20T09:43:10.226Z,18.39
2019-05-20T09:45:39.293Z,18.43
2019-05-20T09:48:08.427Z,18.35
2019-05-20T09:50:37.266Z,18.36
2019-05-20T09:53:07.556Z,18.31
2019-05-20T09:55:36.975Z,18.23
2019-05-20T09:58:05.928Z,18.22
2019-05-20T10:00:34.710Z,18.18
2019-05-20T10:03:03.752Z,18.11
2019-05-20T10:05:32.615Z,18.11
2019-05-20T10:08:01.584Z,18.12
2019-05-20T10:10:30.449Z,17.96
2019-05-20T10:12:59.685Z,17.96
2019-05-20T10:15:28.940Z,17.87
2019-05-20T10:17:58.428Z,17.90
2019-05-20T10:20:27.293Z,17.89
2019-05-20T10:22:56.038Z,17.88
2019-05-20T10:25:25.091Z,17.89
2019-05-20T10:27:57.358Z,17.88
2019-05-20T10:30:24.448Z,17.90
2019-05-20T10:32:53.312Z,17.93
2019-05-20T10:35:22.243Z,17.91
2019-05-20T10:37:51.334Z,17.89
2019-05-20T10:40:20.370Z,17.76
2019-05-20T10:42:50.659Z,17.65
2019-05-20T10:45:19.582Z,17.60
2019-05-20T10:47:48.328Z,17.62
2019-05-20T10:50:17.607Z,17.55
2019-05-20T10:52:46.424Z,17.49
2019-05-20T10:55:16.966Z,17.42
2019-05-20T10:57:46.017Z,17.41
2019-05-20T11:00:16.591Z,17.24
2019-05-20T11:02:45.430Z,17.23
2019-05-20T11:05:17.300Z,17.26
2019-05-20T11:07:46.500Z,17.19
2019-05-20T11:10:15.608Z,17.19
2019-05-20T11:12:44.928Z,17.17
2019-05-20T11:15:13.803Z,17.16
2019-05-20T11:17:42.693Z,17.12
2019-05-20T11:20:11.712Z,17.01
2019-05-20T11:22:40.591Z,16.98
2019-05-20T11:25:09.626Z,16.88
2019-05-20T11:33:00.037Z,16.80
2019-05-20T11:35:29.916Z,16.81
2019-05-20T11:37:59.011Z,16.79
2019-05-20T11:40:28.330Z,16.81
2019-05-20T11:42:57.339Z,16.71
2019-05-20T11:45:26.426Z,16.73
2019-05-20T11:47:55.378Z,16.71
2019-05-20T11:50:24.293Z,16.54
2019-05-20T11:52:53.346Z,16.64
2019-05-20T11:55:22.451Z,16.66
2019-05-20T11:57:51.322Z,16.62
2019-05-20T12:00:20.634Z,16.65
2019-05-20T12:02:49.580Z,16.65
2019-05-20T12:05:18.426Z,16.67
2019-05-20T12:07:47.168Z,16.70
2019-05-20T12:10:16.134Z,16.75
2019-05-20T12:12:46.173Z,16.69
2019-05-20T12:15:15.428Z,16.50
2019-05-20T12:17:44.213Z,16.50
2019-05-20T12:20:13.152Z,16.51
2019-05-20T12:22:42.225Z,16.49
2019-05-20T12:25:11.124Z,16.34
2019-05-20T12:27:42.519Z,16.36
2019-05-20T12:30:11.608Z,16.36
2019-05-20T12:32:40.742Z,16.35
2019-05-20T12:35:09.869Z,16.38
2019-05-20T12:37:39.656Z,16.43
2019-05-20T12:40:09.078Z,16.45
2019-05-20T12:42:38.075Z,16.45
2019-05-20T12:45:07.513Z,16.45
2019-05-20T12:47:36.389Z,16.43
2019-05-20T12:50:05.793Z,16.41
2019-05-20T12:55:17.229Z,16.41
2019-05-20T13:00:22.536Z,16.35
2019-05-20T13:02:51.751Z,16.37
2019-05-20T13:07:56.911Z,16.34
2019-05-20T13:10:29.794Z,16.29
2019-05-20T13:12:56.978Z,16.24
2019-05-20T13:15:25.952Z,16.21
2019-05-20T14:56:32.655Z,14.70
2019-05-20T14:59:03.898Z,14.71
2019-05-20T15:01:33.092Z,14.71
2019-05-20T15:04:02.221Z,14.68
2019-05-20T15:06:32.651Z,14.63
2019-05-20T15:09:04.431Z,14.66
2019-05-20T15:11:38.266Z,14.69
2019-05-20T15:14:04.483Z,14.65
2019-05-20T15:16:33.932Z,14.60
2019-05-20T15:19:02.933Z,14.56
2019-05-20T15:21:31.960Z,14.57
2019-05-20T15:24:00.956Z,14.57
2019-05-20T15:26:30.130Z,14.56
2019-05-20T15:28:59.271Z,14.58
2019-05-20T15:31:28.524Z,14.56
2019-05-20T15:33:57.935Z,14.49
2019-05-20T15:36:26.923Z,14.46
2019-05-20T15:38:59.266Z,14.42
2019-05-20T15:41:30.783Z,14.38
2019-05-20T15:43:59.757Z,14.33
2019-05-20T15:46:28.666Z,14.27
2019-05-20T15:48:58.194Z,14.23
2019-05-20T15:51:27.522Z,14.19
2019-05-20T15:53:56.503Z,14.17
2019-05-20T15:56:25.599Z,14.17
2019-05-20T15:59:11.236Z,14.14
2019-05-20T16:01:41.201Z,14.11
2019-05-20T16:04:10.166Z,14.12
2019-05-20T16:06:38.893Z,14.16
2019-05-20T16:09:08.009Z,14.15
2019-05-20T16:11:36.971Z,14.16
2019-05-20T16:14:05.741Z,14.18
2019-05-20T16:16:34.643Z,14.19
2019-05-20T16:19:03.470Z,14.18
2019-05-20T16:21:32.298Z,14.17
2019-05-20T16:24:01.954Z,14.15
2019-05-20T16:26:30.940Z,14.13
2019-05-20T16:29:10.807Z,14.11
2019-05-20T16:31:39.621Z,14.12
2019-05-20T16:34:08.565Z,14.12
2019-05-20T16:36:43.323Z,14.09
2019-05-20T16:39:12.137Z,14.09
2019-05-20T16:41:43.119Z,14.10
2019-05-20T16:44:12.399Z,14.09
2019-05-20T16:46:42.322Z,14.08
2019-05-20T16:49:11.294Z,14.09
2019-05-20T16:51:40.335Z,14.10
2019-05-20T16:54:09.762Z,14.11
2019-05-20T16:56:38.678Z,14.11
2019-05-20T16:59:08.771Z,14.11
2019-05-20T17:04:14.346Z,14.12
2019-05-20T17:06:48.352Z,14.14
2019-05-20T17:09:18.427Z,14.15
2019-05-20T17:11:48.089Z,14.16
2019-05-20T17:14:22.359Z,14.18
2019-05-20T17:35:39.921Z,14.30
2019-05-20T17:38:09.841Z,14.29
2019-05-20T17:40:38.848Z,14.30
2019-05-20T17:43:09.077Z,14.29
2019-05-20T17:45:38.415Z,14.30
2019-05-20T17:48:07.858Z,14.28
2019-05-20T17:50:37.893Z,14.28
2019-05-20T17:53:10.335Z,14.26
2019-05-20T17:55:39.354Z,14.24
2019-05-20T17:58:08.570Z,14.23
2019-05-20T18:00:39.759Z,14.20
2019-05-20T18:03:09.079Z,14.18
2019-05-20T18:05:38.092Z,14.15
2019-05-20T18:08:07.555Z,14.10
2019-05-20T18:10:37.861Z,14.09
2019-05-20T18:13:07.188Z,14.07
2019-05-20T18:15:38.202Z,14.05
2019-05-20T18:18:09.714Z,14.05
2019-05-20T18:20:38.962Z,14.03
2019-05-20T18:23:08.255Z,14.02
2019-05-20T18:25:37.165Z,14.01
2019-05-20T18:28:06.166Z,13.99
2019-05-20T18:30:35.280Z,13.98
2019-05-20T18:33:04.601Z,13.97
2019-05-20T18:35:42.740Z,13.96
2019-05-20T18:38:12.863Z,13.95
2019-05-20T18:40:42.160Z,13.94
2019-05-20T18:43:11.078Z,13.94
2019-05-20T18:45:41.714Z,13.91
2019-05-20T18:48:10.537Z,13.88
2019-05-20T18:50:39.863Z,13.80
2019-05-20T18:53:10.873Z,13.75
2019-05-20T18:55:39.889Z,13.68
2019-05-20T18:58:08.787Z,13.63
2019-05-20T19:00:37.735Z,13.57
2019-05-20T19:03:07.075Z,13.51
2019-05-20T19:05:35.881Z,13.50
2019-05-20T19:08:07.092Z,13.44
2019-05-20T19:10:36.089Z,13.43
2019-05-20T19:13:08.106Z,13.38
2019-05-20T19:15:37.277Z,13.35
2019-05-20T19:18:06.374Z,13.32
2019-05-20T19:20:35.222Z,13.30
2019-05-20T19:23:05.649Z,13.28
2019-05-20T19:25:37.913Z,13.28
2019-05-20T19:28:05.325Z,13.27
2019-05-20T19:30:37.543Z,13.28
2019-05-20T19:33:11.090Z,13.27
2019-05-20T19:35:43.085Z,13.24
2019-05-20T19:38:14.490Z,13.25
2019-05-20T19:40:48.178Z,13.22
2019-05-20T19:43:20.686Z,13.20
2019-05-20T19:51:50.401Z,13.18
2019-05-20T19:54:24.165Z,13.18
2019-05-20T20:10:10.448Z,13.13
